Time;durP1;ratioP1;P1;durP2;ratioP2;P2;SDS_P1;SDS_P2;PMS_P1;PMS_P2;Temp;Humidity;BMP_temperature;BMP_pressure;BME280_temperature;BME280_humidity;BME280_pressure;Samples;Min_cycle;Max_cycle;Signal;HPM_P1;HPM_P2
2023/03/08 00:00:13;;;;;;;4.83;3.90;;;9.30;49.80;9.10;95046.00;;;;5033398;28;20685;-78
2023/03/08 00:02:42;;;;;;;4.47;3.77;;;9.30;49.80;9.10;95042.00;;;;5033142;28;20305;-78
2023/03/08 00:05:10;;;;;;;4.70;3.57;;;9.30;49.80;9.10;95042.00;;;;5033245;28;20292;-77
2023/03/08 00:07:38;;;;;;;4.90;3.43;;;9.30;49.80;9.00;95044.00;;;;5035173;28;20642;-78
2023/03/08 00:10:07;;;;;;;4.40;3.70;;;9.30;49.90;9.00;95051.00;;;;5032484;28;20193;-77
2023/03/08 00:12:34;;;;;;;4.53;3.50;;;9.30;50.00;9.00;95047.00;;;;5048361;28;20271;-77
2023/03/08 00:15:01;;;;;;;4.13;3.73;;;9.30;50.00;9.00;95053.00;;;;5031804;28;20209;-78
2023/03/08 00:17:28;;;;;;;5.33;3.80;;;9.30;50.00;9.00;95064.00;;;;5036548;28;20770;-78
2023/03/08 00:19:57;;;;;;;4.87;3.80;;;9.30;50.00;9.00;95050.00;;;;5031565;28;20285;-78
2023/03/08 00:22:24;;;;;;;5.60;4.13;;;9.30;50.00;9.00;95055.00;;;;5030730;28;20303;-78
2023/03/08 00:24:53;;;;;;;3.77;3.33;;;9.30;50.00;9.00;95057.00;;;;5027967;28;20740;-78
2023/03/08 00:27:21;;;;;;;5.30;4.37;;;9.30;50.00;8.90;95056.00;;;;5036068;28;20201;-78
2023/03/08 00:29:48;;;;;;;6.43;4.43;;;9.20;50.00;8.90;95060.00;;;;5033077;28;20204;-77
2023/03/08 00:32:16;;;;;;;4.43;3.43;;;9.20;50.10;8.90;95063.00;;;;5033356;28;20244;-78
2023/03/08 00:34:45;;;;;;;5.23;3.83;;;9.20;50.10;8.90;95070.00;;;;5033119;28;20200;-77
2023/03/08 00:37:14;;;;;;;5.77;3.60;;;9.20;50.20;8.90;95060.00;;;;5033017;28;20647;-78
2023/03/08 00:39:42;;;;;;;5.53;4.13;;;9.20;50.30;8.90;95062.00;;;;5014361;28;20201;-78
2023/03/08 00:42:09;;;;;;;6.70;4.40;;;9.10;50.40;8.90;95069.00;;;;5030543;28;20769;-78
2023/03/08 00:44:36;;;;;;;5.53;3.90;;;9.10;50.60;8.90;95069.00;;;;5030315;28;20211;-78
2023/03/08 00:47:04;;;;;;;5.07;3.77;;;9.10;50.60;8.90;95067.00;;;;5031240;28;20745;-77
2023/03/08 00:49:31;;;;;;;5.47;4.30;;;9.10;51.20;8.90;95065.00;;;;5030177;28;20208;-78
2023/03/08 00:51:58;;;;;;;5.77;4.83;;;9.10;50.70;8.90;95062.00;;;;5034257;28;20288;-77
2023/03/08 00:54:27;;;;;;;5.90;4.77;;;9.10;50.80;8.80;95060.00;;;;5033906;28;20296;-78
2023/03/08 00:56:54;;;;;;;5.10;4.27;;;9.10;50.80;8.80;95069.00;;;;5035325;28;20288;-78
2023/03/08 00:59:22;;;;;;;5.67;4.33;;;9.10;50.80;8.80;95062.00;;;;5034077;28;20227;-77
2023/03/08 01:01:49;;;;;;;6.43;4.63;;;9.00;50.80;8.70;95059.00;;;;5031729;28;20223;-78
2023/03/08 01:04:16;;;;;;;4.80;4.13;;;9.00;50.80;8.70;95051.00;;;;5031402;28;20284;-78
2023/03/08 01:06:44;;;;;;;6.73;4.73;;;9.00;50.90;8.70;95055.00;;;;5034276;28;20202;-78
2023/03/08 01:09:12;;;;;;;7.13;5.00;;;9.00;51.00;8.60;95051.00;;;;5032791;28;20207;-78
2023/03/08 01:11:42;;;;;;;6.13;4.73;;;8.90;51.00;8.60;95051.00;;;;5030401;28;20217;-77
2023/03/08 01:14:09;;;;;;;5.43;4.50;;;8.90;51.10;8.50;95049.00;;;;5032726;28;20200;-78
2023/03/08 01:16:37;;;;;;;6.00;4.57;;;8.90;51.10;8.50;95047.00;;;;5033969;28;20288;-77
2023/03/08 01:19:05;;;;;;;7.50;5.40;;;8.90;51.20;8.50;95047.00;;;;5035551;28;20298;-78
2023/03/08 01:21:33;;;;;;;8.50;4.77;;;8.80;51.30;8.50;95052.00;;;;5034672;28;20275;-78
2023/03/08 01:24:00;;;;;;;5.37;3.90;;;8.80;51.40;8.50;95044.00;;;;5039279;28;20193;-78
2023/03/08 01:26:28;;;;;;;5.30;4.63;;;8.80;51.50;8.50;95045.00;;;;5038701;28;20239;-78
2023/03/08 01:28:57;;;;;;;5.93;4.47;;;8.80;51.60;8.50;95040.00;;;;5037621;28;20718;-78
2023/03/08 01:31:27;;;;;;;6.67;4.70;;;8.80;51.70;8.50;95038.00;;;;5037462;28;20312;-77
2023/03/08 01:33:55;;;;;;;6.13;4.93;;;8.80;51.80;8.50;95038.00;;;;5031338;28;20464;-78
2023/03/08 01:36:26;;;;;;;6.43;4.50;;;8.70;51.80;8.40;95038.00;;;;5030931;28;20201;-77
2023/03/08 01:38:53;;;;;;;5.73;5.10;;;8.70;51.90;8.50;95035.00;;;;5034799;28;20277;-78
2023/03/08 01:41:24;;;;;;;5.10;4.57;;;8.70;52.00;8.50;95042.00;;;;5034196;28;20220;-78
2023/03/08 01:43:52;;;;;;;5.53;4.73;;;8.70;52.00;8.40;95033.00;;;;5036090;28;20228;-78
2023/03/08 01:46:28;;;;;;;7.20;4.80;;;8.70;52.00;8.40;95031.00;;;;5042138;28;20272;-78
2023/03/08 01:49:05;;;;;;;6.70;4.60;;;8.70;52.10;8.40;95028.00;;;;5028445;28;20268;-78
2023/03/08 01:51:39;;;;;;;5.83;4.53;;;8.70;52.10;8.30;95028.00;;;;5036177;28;20706;-78
2023/03/08 01:54:13;;;;;;;6.17;4.20;;;8.70;52.10;8.30;95040.00;;;;5015536;28;20253;-78
2023/03/08 01:56:42;;;;;;;5.63;4.70;;;8.60;52.00;8.30;95025.00;;;;5047643;28;20283;-78
2023/03/08 01:59:10;;;;;;;5.63;4.47;;;8.60;52.00;8.20;95032.00;;;;5029553;28;20221;-78
2023/03/08 02:01:40;;;;;;;4.93;3.87;;;8.60;52.00;8.20;95032.00;;;;5034246;28;20278;-78
2023/03/08 02:04:09;;;;;;;5.33;3.93;;;8.60;52.00;8.20;95027.00;;;;5033523;28;20245;-78
2023/03/08 02:06:36;;;;;;;5.43;3.70;;;8.50;52.00;8.20;95020.00;;;;5039865;28;20288;-78
2023/03/08 02:09:05;;;;;;;4.10;3.70;;;8.50;52.00;8.20;95021.00;;;;5029533;28;20296;-78
2023/03/08 02:11:36;;;;;;;5.60;3.90;;;8.50;52.10;8.30;95017.00;;;;5012023;28;21011;-78
2023/03/08 02:14:03;;;;;;;4.53;4.13;;;8.60;52.20;8.30;95023.00;;;;5032541;28;20699;-78
2023/03/08 02:16:31;;;;;;;5.93;4.07;;;8.50;52.10;8.20;95007.00;;;;5041691;28;20204;-78
2023/03/08 02:19:02;;;;;;;5.10;3.90;;;8.60;52.10;8.20;95001.00;;;;5032610;28;20241;-78
2023/03/08 02:21:32;;;;;;;4.67;3.60;;;8.50;52.10;8.20;95009.00;;;;5032015;28;20221;-78
2023/03/08 02:24:17;;;;;;;5.60;4.17;;;8.50;52.00;8.20;95006.00;;;;5030344;28;20697;-78
2023/03/08 02:26:46;;;;;;;4.53;3.87;;;8.50;52.00;8.10;94997.00;;;;5031374;28;20209;-77
2023/03/08 02:29:13;;;;;;;4.60;3.80;;;8.50;52.00;8.10;95003.00;;;;5032922;28;20236;-78
2023/03/08 02:31:41;;;;;;;5.00;3.37;;;8.50;52.10;8.10;95005.00;;;;5031946;28;20344;-78
2023/03/08 02:34:08;;;;;;;5.17;4.23;;;8.40;52.10;8.10;95011.00;;;;5031996;28;20217;-78
2023/03/08 02:36:36;;;;;;;6.33;4.00;;;8.40;52.10;8.10;95010.00;;;;5034362;28;20205;-78
2023/03/08 02:39:05;;;;;;;6.60;4.03;;;8.40;52.10;8.10;95008.00;;;;5033106;28;20233;-79
2023/03/08 02:41:32;;;;;;;5.27;3.77;;;8.40;52.30;8.00;95010.00;;;;5030332;28;20217;-78
2023/03/08 02:43:59;;;;;;;4.80;4.30;;;8.40;52.30;8.00;95012.00;;;;5027790;28;20280;-78
2023/03/08 02:46:27;;;;;;;5.87;4.13;;;8.30;52.30;8.00;94997.00;;;;5033837;28;20288;-78
2023/03/08 02:48:54;;;;;;;5.63;3.73;;;8.30;52.30;8.00;95002.00;;;;5026338;28;20799;-78
2023/03/08 02:51:21;;;;;;;5.60;3.87;;;8.30;52.30;8.00;94995.00;;;;5033308;28;20800;-79
2023/03/08 02:53:48;;;;;;;5.57;3.97;;;8.30;52.30;7.90;95003.00;;;;5032070;28;20746;-78
2023/03/08 02:56:17;;;;;;;4.80;3.93;;;8.30;52.30;7.90;94999.00;;;;5016785;28;20223;-78
2023/03/08 02:58:44;;;;;;;8.10;4.47;;;8.20;52.30;7.90;94984.00;;;;5026208;28;20658;-77
2023/03/08 03:01:12;;;;;;;6.27;4.10;;;8.20;52.30;7.90;94996.00;;;;5035613;28;20344;-78
2023/03/08 03:03:40;;;;;;;5.57;4.07;;;8.20;52.40;7.80;94995.00;;;;5016231;28;20205;-78
2023/03/08 03:06:15;;;;;;;6.27;3.80;;;8.20;52.40;7.80;94995.00;;;;5027380;28;20617;-77
2023/03/08 03:08:43;;;;;;;5.63;4.00;;;8.10;52.50;7.80;94999.00;;;;5025634;28;20592;-78
2023/03/08 03:11:17;;;;;;;4.63;3.70;;;8.10;52.50;7.70;94998.00;;;;5034677;28;20221;-78
2023/03/08 03:13:45;;;;;;;4.77;3.80;;;8.10;52.60;7.70;94996.00;;;;5019148;28;20285;-79
2023/03/08 03:16:14;;;;;;;5.47;4.00;;;8.00;52.60;7.60;94993.00;;;;5034631;28;20281;-78
2023/03/08 03:18:42;;;;;;;5.00;3.67;;;8.00;52.60;7.60;94983.00;;;;5019185;28;20702;-77
2023/03/08 03:21:13;;;;;;;4.63;3.93;;;7.90;52.60;7.60;94989.00;;;;5031468;28;20248;-78
2023/03/08 03:23:41;;;;;;;4.93;3.90;;;7.90;52.60;7.50;94984.00;;;;5034128;28;20284;-77
2023/03/08 03:26:12;;;;;;;5.40;4.20;;;7.80;52.60;7.50;94984.00;;;;5028050;28;20209;-78
2023/03/08 03:28:43;;;;;;;5.93;4.10;;;7.80;52.70;7.40;94979.00;;;;5034341;28;20295;-78
2023/03/08 03:31:14;;;;;;;6.63;4.13;;;7.70;52.70;7.30;94971.00;;;;5039409;28;20734;-77
2023/03/08 03:33:42;;;;;;;4.93;3.73;;;7.70;52.80;7.30;94986.00;;;;5020477;28;20200;-77
2023/03/08 03:36:13;;;;;;;4.47;3.63;;;7.60;52.80;7.20;94982.00;;;;5021845;28;20602;-77
2023/03/08 03:38:41;;;;;;;4.27;3.87;;;7.60;52.90;7.20;94974.00;;;;5034422;28;20343;-78
2023/03/08 03:41:11;;;;;;;5.53;4.10;;;7.50;53.00;7.10;94982.00;;;;5030330;28;20245;-77
2023/03/08 03:43:41;;;;;;;5.33;4.27;;;7.50;53.10;7.10;94974.00;;;;5031163;28;20202;-78
2023/03/08 03:46:13;;;;;;;5.83;4.13;;;7.40;53.20;7.00;94975.00;;;;5030693;28;20217;-77
2023/03/08 03:48:40;;;;;;;5.40;3.83;;;7.40;53.30;7.00;94970.00;;;;5034242;28;20236;-78
2023/03/08 03:51:12;;;;;;;6.43;4.13;;;7.40;53.40;7.00;94969.00;;;;5034357;28;20328;-78
2023/03/08 03:53:40;;;;;;;6.37;3.93;;;7.30;53.50;6.90;94974.00;;;;5024293;28;20280;-78
2023/03/08 03:56:12;;;;;;;7.37;4.53;;;7.30;53.50;6.90;94982.00;;;;5028152;28;20292;-77
2023/03/08 03:58:42;;;;;;;4.87;4.23;;;7.20;53.60;6.90;94966.00;;;;5032805;28;20656;-78
2023/03/08 04:01:11;;;;;;;7.30;4.30;;;7.20;53.70;6.80;94962.00;;;;5035128;28;20307;-78
2023/03/08 04:03:38;;;;;;;6.43;4.53;;;7.20;53.80;6.80;94971.00;;;;5034176;28;20645;-78
2023/03/08 04:06:08;;;;;;;6.23;4.50;;;7.20;53.80;6.80;94960.00;;;;5033335;28;20225;-77
2023/03/08 04:08:40;;;;;;;5.70;4.37;;;7.10;53.90;6.80;94960.00;;;;5033296;28;20205;-78
2023/03/08 04:11:08;;;;;;;5.60;3.93;;;7.10;54.00;6.80;94956.00;;;;5033879;28;20217;-78
2023/03/08 04:13:36;;;;;;;4.80;3.77;;;7.10;54.00;6.80;94953.00;;;;5032611;28;20193;-78
2023/03/08 04:16:12;;;;;;;5.40;4.27;;;7.10;54.10;6.80;94952.00;;;;5028005;28;20871;-78
2023/03/08 04:18:39;;;;;;;3.87;3.53;;;7.10;54.20;6.80;94960.00;;;;5039634;28;20208;-77
2023/03/08 04:21:06;;;;;;;4.70;4.17;;;7.10;54.20;6.80;94957.00;;;;5029043;28;20249;-78
2023/03/08 04:23:34;;;;;;;6.03;4.20;;;7.10;54.20;6.80;94950.00;;;;5032424;28;20278;-77
2023/03/08 04:26:02;;;;;;;6.10;3.80;;;7.10;54.20;6.80;94956.00;;;;5031013;28;20197;-78
2023/03/08 04:28:29;;;;;;;8.60;4.77;;;7.00;54.20;6.70;94954.00;;;;5031720;28;20260;-78
2023/03/08 04:30:57;;;;;;;6.80;5.03;;;7.00;54.20;6.70;94953.00;;;;5014533;28;20246;-78
2023/03/08 04:33:26;;;;;;;6.50;4.20;;;7.00;54.20;6.70;94960.00;;;;5032175;28;20240;-78
2023/03/08 04:35:54;;;;;;;5.87;4.30;;;7.00;54.20;6.70;94938.00;;;;5040008;28;20229;-77
2023/03/08 04:38:21;;;;;;;5.90;4.33;;;7.00;54.30;6.60;94935.00;;;;5029304;28;20289;-77
2023/03/08 04:41:04;;;;;;;6.13;4.77;;;7.00;54.30;6.60;94928.00;;;;5037941;28;20750;-78
2023/03/08 04:43:32;;;;;;;5.57;3.67;;;7.00;54.30;6.50;94930.00;;;;5029901;28;20198;-78
2023/03/08 04:46:00;;;;;;;5.67;4.50;;;6.90;54.30;6.50;94922.00;;;;5041516;28;20497;-77
2023/03/08 04:48:29;;;;;;;5.60;4.20;;;6.90;54.40;6.40;94917.00;;;;5034726;28;20237;-78
2023/03/08 04:50:59;;;;;;;5.33;3.90;;;6.80;54.40;6.40;94910.00;;;;5039186;28;20308;-78
2023/03/08 04:53:29;;;;;;;5.40;4.00;;;6.80;54.50;6.40;94903.00;;;;5037516;28;20345;-78
2023/03/08 04:55:58;;;;;;;5.00;4.10;;;6.70;54.60;6.40;94901.00;;;;5038815;28;20199;-78
2023/03/08 04:58:25;;;;;;;5.93;4.60;;;6.70;54.70;6.40;94900.00;;;;5031298;28;20202;-78
2023/03/08 05:00:53;;;;;;;6.90;4.43;;;6.70;54.80;6.40;94906.00;;;;5028208;28;20228;-78
2023/03/08 05:03:20;;;;;;;5.40;4.20;;;6.70;54.90;6.40;94896.00;;;;5031769;28;20204;-78
2023/03/08 05:05:52;;;;;;;6.37;4.30;;;6.70;55.00;6.40;94890.00;;;;5032921;28;20202;-77
2023/03/08 05:08:20;;;;;;;6.17;4.30;;;6.70;55.00;6.40;94884.00;;;;5030783;28;20225;-78
2023/03/08 05:10:49;;;;;;;6.00;4.60;;;6.60;55.00;6.30;94874.00;;;;5044628;28;20762;-78
2023/03/08 05:13:16;;;;;;;5.27;4.47;;;6.60;55.10;6.30;94861.00;;;;5030515;28;20211;-78
2023/03/08 05:15:44;;;;;;;5.63;4.07;;;6.60;55.20;6.30;94855.00;;;;5034624;28;20251;-78
2023/03/08 05:18:11;;;;;;;5.30;4.43;;;6.60;55.20;6.30;94868.00;;;;5022924;28;20224;-78
2023/03/08 05:20:38;;;;;;;5.47;4.53;;;6.60;55.30;6.30;94866.00;;;;5043588;28;20256;-78
2023/03/08 05:23:08;;;;;;;6.77;4.70;;;6.60;55.30;6.30;94858.00;;;;5029481;28;20556;-77
2023/03/08 05:25:35;;;;;;;6.20;4.87;;;6.60;55.40;6.30;94855.00;;;;5045618;28;20619;-78
2023/03/08 05:28:02;;;;;;;6.87;5.00;;;6.60;55.50;6.40;94854.00;;;;5033095;28;20224;-78
2023/03/08 05:30:30;;;;;;;7.83;5.43;;;6.60;55.60;6.30;94858.00;;;;5031722;28;20201;-78
2023/03/08 05:32:57;;;;;;;8.33;5.73;;;6.60;55.60;6.30;94860.00;;;;5029822;28;20197;-79
2023/03/08 05:35:24;;;;;;;11.03;5.67;;;6.60;55.70;6.40;94860.00;;;;5034906;28;20674;-81
2023/03/08 05:37:52;;;;;;;7.53;5.23;;;6.60;55.60;6.40;94852.00;;;;5030987;28;20235;-82
2023/03/08 05:40:21;;;;;;;8.50;5.90;;;6.60;55.70;6.40;94853.00;;;;5038234;28;20274;-81
2023/03/08 05:42:48;;;;;;;9.70;5.80;;;6.60;55.90;6.50;94853.00;;;;5039123;28;20569;-81
2023/03/08 05:45:16;;;;;;;8.73;5.17;;;6.60;55.90;6.50;94838.00;;;;5039228;28;20221;-82
2023/03/08 05:47:44;;;;;;;7.70;5.53;;;6.60;56.00;6.60;94838.00;;;;5025936;28;20200;-81
2023/03/08 05:50:13;;;;;;;7.10;4.83;;;6.60;56.10;6.70;94820.00;;;;5033930;28;20205;-79
2023/03/08 05:52:41;;;;;;;8.60;5.30;;;6.70;56.20;6.70;94822.00;;;;5038319;28;20257;-81
2023/03/08 05:55:09;;;;;;;7.17;5.20;;;6.70;56.30;6.70;94831.00;;;;5030126;28;20193;-81
2023/03/08 05:57:38;;;;;;;5.57;4.57;;;6.70;56.30;6.80;94819.00;;;;5039465;28;20240;-81
2023/03/08 06:00:08;;;;;;;6.00;4.60;;;6.80;56.40;6.80;94827.00;;;;5038890;28;20707;-81
2023/03/08 06:02:35;;;;;;;5.67;4.30;;;6.80;56.30;6.90;94840.00;;;;5017148;28;20285;-82
2023/03/08 06:05:03;;;;;;;5.07;4.50;;;6.80;56.40;6.90;94840.00;;;;5028463;28;20728;-82
2023/03/08 06:07:31;;;;;;;6.30;4.30;;;6.90;56.50;7.00;94847.00;;;;5039254;28;20193;-82
2023/03/08 06:09:59;;;;;;;6.63;4.40;;;7.00;56.50;7.10;94855.00;;;;5038049;28;20790;-81
2023/03/08 06:12:27;;;;;;;5.73;4.90;;;7.00;56.50;7.10;94847.00;;;;5035686;28;20244;-81
2023/03/08 06:14:56;;;;;;;7.60;5.13;;;7.00;56.50;7.10;94847.00;;;;5035242;28;20228;-81
2023/03/08 06:17:23;;;;;;;6.13;4.17;;;7.10;56.60;7.20;94853.00;;;;5034935;28;20280;-81
2023/03/08 06:19:50;;;;;;;7.60;5.47;;;7.10;56.50;7.20;94846.00;;;;5037650;28;20315;-81
2023/03/08 06:22:18;;;;;;;5.07;4.07;;;7.10;56.60;7.20;94850.00;;;;5041650;28;20245;-81
2023/03/08 06:24:48;;;;;;;5.43;4.57;;;7.20;56.70;7.30;94855.00;;;;5040984;28;20197;-81
2023/03/08 06:27:16;;;;;;;7.50;4.70;;;7.20;56.70;7.30;94851.00;;;;5034639;28;20193;-81
2023/03/08 06:29:44;;;;;;;6.77;4.97;;;7.30;56.50;7.30;94850.00;;;;5040650;28;20201;-80
2023/03/08 06:32:13;;;;;;;8.07;5.03;;;7.30;56.40;7.40;94859.00;;;;5040811;28;20305;-81
2023/03/08 06:34:40;;;;;;;6.00;4.13;;;7.40;56.50;7.40;94874.00;;;;5041763;28;20205;-82
2023/03/08 06:37:07;;;;;;;9.40;4.73;;;7.40;56.50;7.40;94866.00;;;;5041377;28;20276;-81
2023/03/08 06:39:35;;;;;;;6.10;4.67;;;7.40;56.40;7.50;94865.00;;;;5041917;28;20227;-82
2023/03/08 06:42:02;;;;;;;6.47;4.53;;;7.50;56.40;7.60;94860.00;;;;5041044;28;20686;-80
2023/03/08 06:44:30;;;;;;;5.57;4.40;;;7.50;56.40;7.60;94860.00;;;;5042192;28;20605;-81
2023/03/08 06:46:58;;;;;;;6.07;4.73;;;7.60;56.50;7.70;94862.00;;;;5042043;28;20276;-81
2023/03/08 06:49:39;;;;;;;9.40;4.43;;;7.60;56.50;7.80;94854.00;;;;5039735;28;20233;-82
2023/03/08 06:55:18;;;;;;;6.90;4.43;;;7.70;56.60;7.90;94867.00;;;;5041158;28;20235;-80
2023/03/08 06:57:45;;;;;;;5.87;4.67;;;7.80;56.40;7.90;94867.00;;;;5040421;28;20205;-81
2023/03/08 07:00:14;;;;;;;6.50;4.30;;;7.80;56.50;8.00;94868.00;;;;5041570;28;20236;-82
2023/03/08 07:02:43;;;;;;;9.77;5.30;;;7.90;56.50;8.00;94869.00;;;;5040385;28;20259;-82
2023/03/08 07:05:12;;;;;;;6.43;4.97;;;7.90;56.30;8.10;94882.00;;;;5044504;28;20284;-81
2023/03/08 07:07:39;;;;;;;9.87;5.20;;;8.00;56.30;8.10;94870.00;;;;5042650;28;20239;-82
2023/03/08 07:10:09;;;;;;;9.70;5.00;;;8.00;56.40;8.20;94884.00;;;;5040644;28;20280;-80
2023/03/08 07:12:39;;;;;;;6.70;4.93;;;8.10;56.40;8.20;94880.00;;;;5030441;28;20312;-82
2023/03/08 07:15:08;;;;;;;6.47;4.83;;;8.10;56.40;8.20;94885.00;;;;5040149;28;20224;-81
2023/03/08 07:17:35;;;;;;;5.70;4.80;;;8.10;56.30;8.30;94884.00;;;;5024148;28;20284;-82
2023/03/08 07:20:05;;;;;;;6.67;5.10;;;8.20;56.40;8.40;94878.00;;;;5042378;28;20304;-82
2023/03/08 07:22:34;;;;;;;7.13;4.87;;;8.30;56.50;8.40;94877.00;;;;5056760;28;20235;-80
2023/03/08 07:25:01;;;;;;;7.40;4.87;;;8.30;57.00;8.50;94876.00;;;;5043430;28;20271;-81
2023/03/08 07:27:28;;;;;;;6.57;4.77;;;8.30;56.30;8.50;94873.00;;;;5041028;28;20216;-82
2023/03/08 07:29:55;;;;;;;6.27;5.33;;;8.40;56.30;8.50;94876.00;;;;5041873;28;20205;-80
2023/03/08 07:32:27;;;;;;;5.13;4.50;;;8.40;56.40;8.60;94881.00;;;;5041344;28;20221;-80
2023/03/08 07:34:54;;;;;;;7.17;4.97;;;8.40;56.40;8.60;94882.00;;;;5052158;28;20296;-82
2023/03/08 07:37:22;;;;;;;7.07;5.30;;;8.50;56.40;8.70;94878.00;;;;5057400;28;20266;-81
2023/03/08 07:39:51;;;;;;;6.87;5.20;;;8.60;56.50;8.80;94875.00;;;;5025467;28;20232;-80
2023/03/08 07:42:19;;;;;;;7.37;5.30;;;8.60;56.50;8.80;94882.00;;;;5042023;28;20309;-82
2023/03/08 07:44:46;;;;;;;7.67;5.13;;;8.70;56.50;8.90;94870.00;;;;5043852;28;20193;-80
2023/03/08 07:47:13;;;;;;;8.27;5.37;;;8.70;56.40;9.00;94875.00;;;;5043522;28;20653;-80
2023/03/08 07:49:40;;;;;;;8.33;5.53;;;8.80;56.40;9.00;94882.00;;;;5041803;28;20236;-81
2023/03/08 07:52:08;;;;;;;7.77;5.77;;;8.80;56.40;9.10;94877.00;;;;5058044;28;20249;-80
2023/03/08 07:54:35;;;;;;;8.37;5.67;;;8.90;56.40;9.10;94870.00;;;;5057121;28;20265;-80
2023/03/08 07:57:05;;;;;;;8.90;6.43;;;9.00;56.40;9.20;94865.00;;;;5048057;28;20276;-83
2023/03/08 07:59:32;;;;;;;8.50;5.90;;;9.00;56.40;9.30;94879.00;;;;5040012;28;20225;-81
2023/03/08 08:01:59;;;;;;;9.63;6.43;;;9.10;56.50;9.40;94868.00;;;;5042014;28;20257;-82
2023/03/08 08:04:27;;;;;;;9.67;6.40;;;9.10;56.50;9.40;94861.00;;;;5040346;28;20280;-81
2023/03/08 08:06:54;;;;;;;9.73;6.27;;;9.20;56.60;9.50;94865.00;;;;5038226;28;20475;-82
2023/03/08 08:09:22;;;;;;;9.00;6.23;;;9.20;56.50;9.50;94859.00;;;;5038581;28;20878;-81
2023/03/08 08:11:50;;;;;;;9.23;6.10;;;9.30;56.50;9.60;94855.00;;;;5040331;28;20348;-82
2023/03/08 08:14:19;;;;;;;8.50;5.40;;;9.40;56.40;9.70;94848.00;;;;5044047;28;20219;-80
2023/03/08 08:16:46;;;;;;;9.27;6.47;;;9.50;56.60;9.70;94841.00;;;;5046123;28;20289;-80
2023/03/08 08:19:14;;;;;;;9.33;6.60;;;9.50;56.50;9.80;94845.00;;;;5031276;28;20193;-80
2023/03/08 08:21:42;;;;;;;7.73;6.33;;;9.60;56.60;9.90;94827.00;;;;5039614;28;20291;-82
2023/03/08 08:24:09;;;;;;;8.17;5.80;;;9.70;56.70;10.00;94829.00;;;;5038570;28;20204;-81
2023/03/08 08:26:37;;;;;;;8.17;5.83;;;9.70;56.90;10.10;94818.00;;;;5042546;28;20675;-81
2023/03/08 08:29:04;;;;;;;8.73;6.30;;;9.80;56.80;10.30;94807.00;;;;5058399;28;20649;-79
2023/03/08 08:31:34;;;;;;;7.00;5.20;;;9.90;56.90;10.40;94804.00;;;;5039278;28;20249;-84
2023/03/08 08:34:02;;;;;;;8.37;5.80;;;10.00;57.00;10.50;94812.00;;;;5028508;28;20227;-82
2023/03/08 08:36:29;;;;;;;6.87;5.87;;;10.10;57.20;10.60;94794.00;;;;5041939;28;20224;-81
2023/03/08 08:38:56;;;;;;;7.50;5.80;;;10.20;57.20;10.70;94788.00;;;;5041497;28;20217;-81
2023/03/08 08:41:24;;;;;;;6.43;5.33;;;10.40;57.20;10.80;94780.00;;;;5041294;28;20240;-81
2023/03/08 08:43:55;;;;;;;7.20;5.07;;;10.40;57.10;10.90;94780.00;;;;5043048;28;20197;-81
2023/03/08 08:46:23;;;;;;;6.57;5.03;;;10.60;56.90;10.90;94772.00;;;;5055923;28;20201;-82
2023/03/08 08:48:51;;;;;;;6.23;5.00;;;10.60;56.60;11.00;94775.00;;;;5050585;28;20188;-82
2023/03/08 08:51:19;;;;;;;7.87;5.60;;;10.70;56.40;11.00;94774.00;;;;5052154;28;20232;-81
2023/03/08 08:53:47;;;;;;;6.73;5.13;;;10.80;56.10;11.10;94772.00;;;;5051908;28;20201;-82
2023/03/08 08:56:19;;;;;;;6.53;5.23;;;10.80;55.90;11.10;94768.00;;;;5033908;28;20219;-81
2023/03/08 08:58:47;;;;;;;5.93;5.07;;;10.90;55.80;11.10;94757.00;;;;5053149;28;20205;-82
2023/03/08 09:01:19;;;;;;;8.40;6.30;;;10.90;55.70;11.20;94750.00;;;;5050608;28;20214;-82
2023/03/08 09:03:47;;;;;;;8.77;7.37;;;10.90;55.30;11.20;94747.00;;;;5053357;28;20333;-82
2023/03/08 09:06:20;;;;;;;9.27;7.03;;;11.00;55.30;11.20;94739.00;;;;5056183;28;20201;-82
2023/03/08 09:08:50;;;;;;;12.53;7.00;;;11.10;55.30;11.30;94723.00;;;;5049350;28;20197;-81
2023/03/08 09:11:18;;;;;;;8.27;5.90;;;11.10;55.30;11.40;94713.00;;;;5050854;28;20265;-81
2023/03/08 09:13:46;;;;;;;8.07;6.03;;;11.10;55.20;11.40;94704.00;;;;5047998;28;20201;-80
2023/03/08 09:16:21;;;;;;;7.73;6.00;;;11.20;55.30;11.50;94691.00;;;;5036291;28;20261;-81
2023/03/08 09:18:49;;;;;;;6.97;5.23;;;11.30;55.30;11.60;94693.00;;;;5038448;28;20217;-83
2023/03/08 09:21:18;;;;;;;7.20;5.50;;;11.30;55.30;11.60;94680.00;;;;5046871;28;20690;-81
2023/03/08 09:23:46;;;;;;;7.43;6.03;;;11.40;55.60;11.60;94676.00;;;;5045946;28;20200;-82
2023/03/08 09:26:14;;;;;;;6.30;4.93;;;11.40;54.80;11.70;94668.00;;;;5032690;28;20696;-81
2023/03/08 09:28:42;;;;;;;11.77;5.27;;;11.40;54.60;11.70;94678.00;;;;5031025;28;20198;-82
2023/03/08 09:31:13;;;;;;;7.30;5.07;;;11.50;54.60;11.80;94658.00;;;;5024786;28;20224;-81
2023/03/08 09:33:42;;;;;;;7.70;5.27;;;11.50;54.50;11.80;94657.00;;;;5024705;28;20309;-81
2023/03/08 09:36:13;;;;;;;6.10;4.77;;;11.60;54.40;11.90;94654.00;;;;5034270;28;20228;-80
2023/03/08 09:38:42;;;;;;;6.63;5.03;;;11.60;54.40;11.90;94657.00;;;;5035173;28;20328;-80
2023/03/08 09:41:45;;;;;;;6.67;5.53;;;11.70;54.20;11.90;94659.00;;;;5062520;28;20220;-81
2023/03/08 09:45:06;;;;;;;7.17;5.73;;;11.70;54.00;11.90;94676.00;;;;5034719;28;20197;-81
2023/03/08 09:47:45;;;;;;;7.43;6.37;;;11.70;53.90;11.90;94669.00;;;;5026034;28;20552;-81
2023/03/08 09:50:31;;;;;;;11.80;7.67;;;11.70;53.70;11.90;94653.00;;;;5029966;28;20277;-81
2023/03/08 09:53:07;;;;;;;6.13;4.83;;;11.70;53.40;11.90;94639.00;;;;5036125;28;20288;-80
2023/03/08 09:55:45;;;;;;;7.93;5.33;;;11.80;53.50;11.90;94639.00;;;;5035275;28;20729;-80
2023/03/08 09:58:27;;;;;;;6.20;4.63;;;11.80;53.60;11.90;94647.00;;;;5040391;28;20228;-80
2023/03/08 10:01:02;;;;;;;5.93;5.20;;;11.80;53.80;11.80;94645.00;;;;5038669;28;20221;-81
2023/03/08 10:04:25;;;;;;;5.50;4.90;;;11.70;54.00;11.80;94652.00;;;;5016143;28;20202;-81
2023/03/08 10:07:11;;;;;;;5.47;4.50;;;11.80;54.10;11.80;94648.00;;;;4997320;28;20285;-80
2023/03/08 10:09:47;;;;;;;7.73;5.23;;;11.80;53.90;11.80;94650.00;;;;5039450;28;20203;-81
2023/03/08 10:12:28;;;;;;;6.70;5.17;;;11.70;53.60;11.80;94647.00;;;;5038034;28;20237;-81
2023/03/08 10:15:03;;;;;;;5.97;5.20;;;11.70;53.70;11.80;94637.00;;;;5043829;28;20209;-80
2023/03/08 10:17:43;;;;;;;6.00;4.77;;;11.70;53.80;11.80;94631.00;;;;5018808;28;20220;-81
2023/03/08 10:20:20;;;;;;;7.27;5.10;;;11.70;54.20;11.90;94639.00;;;;5035613;28;20201;-80
2023/03/08 10:22:58;;;;;;;5.87;4.60;;;11.80;54.20;11.90;94642.00;;;;5038025;28;20228;-79
2023/03/08 10:25:30;;;;;;;6.40;5.27;;;11.70;54.40;11.90;94645.00;;;;5032701;28;20284;-81
2023/03/08 10:28:01;;;;;;;8.40;5.30;;;11.80;55.00;12.00;94649.00;;;;5037490;28;20198;-81
2023/03/08 10:30:34;;;;;;;7.53;5.77;;;11.80;55.00;12.00;94625.00;;;;5043481;28;20281;-81
2023/03/08 10:33:08;;;;;;;9.43;6.67;;;11.80;54.60;12.00;94634.00;;;;5043919;28;20280;-81
2023/03/08 10:35:38;;;;;;;9.90;7.27;;;11.80;54.20;12.00;94640.00;;;;5023630;28;20297;-81
2023/03/08 10:38:18;;;;;;;9.00;6.20;;;11.80;54.20;12.00;94651.00;;;;5040631;28;20241;-80
2023/03/08 10:40:46;;;;;;;8.37;5.83;;;11.90;54.60;12.00;94644.00;;;;5037316;28;20259;-81
2023/03/08 10:43:29;;;;;;;8.73;5.83;;;11.90;55.10;12.00;94643.00;;;;5036773;28;20277;-80
2023/03/08 10:46:07;;;;;;;8.10;5.60;;;11.90;55.10;12.00;94648.00;;;;5040461;28;20201;-80
2023/03/08 10:48:34;;;;;;;7.40;5.77;;;11.90;55.30;12.00;94652.00;;;;5036948;28;20262;-81
2023/03/08 10:51:05;;;;;;;7.40;6.03;;;11.90;56.00;12.00;94657.00;;;;5035991;28;20618;-79
2023/03/08 10:53:34;;;;;;;7.20;5.63;;;11.80;57.10;12.00;94648.00;;;;5036914;28;20574;-81
2023/03/08 10:56:02;;;;;;;8.03;5.93;;;11.80;57.60;12.00;94635.00;;;;5044780;28;20205;-82
2023/03/08 10:58:36;;;;;;;6.97;5.87;;;11.80;58.30;12.00;94642.00;;;;5018867;28;20240;-82
2023/03/08 11:01:22;;;;;;;5.80;4.77;;;11.80;57.80;11.90;94642.00;;;;5032217;28;20676;-80
2023/03/08 11:04:00;;;;;;;5.67;4.80;;;11.80;57.40;11.80;94635.00;;;;5035028;28;20220;-80
2023/03/08 11:06:27;;;;;;;6.23;5.13;;;11.70;57.70;11.80;94635.00;;;;5024259;28;20248;-82
2023/03/08 11:08:58;;;;;;;6.33;4.43;;;11.70;57.80;11.80;94645.00;;;;5019241;28;20198;-81
2023/03/08 11:11:26;;;;;;;6.20;4.60;;;11.70;58.00;11.70;94638.00;;;;5037107;28;20236;-80
2023/03/08 11:13:56;;;;;;;3.93;3.53;;;11.70;58.20;11.70;94633.00;;;;5035232;28;20285;-81
2023/03/08 11:16:50;;;;;;;4.63;3.93;;;11.60;58.70;11.70;94629.00;;;;5024087;28;20601;-81
2023/03/08 11:19:43;;;;;;;3.80;3.40;;;11.70;58.90;11.60;94624.00;;;;5025195;28;20209;-81